Time;durP1;ratioP1;P1;durP2;ratioP2;P2;SDS_P1;SDS_P2;PMS_P1;PMS_P2;Temp;Humidity;BMP_temperature;BMP_pressure;BME280_temperature;BME280_humidity;BME280_pressure;Samples;Min_cycle;Max_cycle;Signal;HPM_P1;HPM_P2
2024/03/09 00:00:40;;;;;;;10.48;7.38;;;8.60;79.90;;;;;;4941904;29;20247;-75
2024/03/09 00:03:07;;;;;;;10.40;7.78;;;8.60;79.70;;;;;;4937537;29;20189;-74
2024/03/09 00:05:34;;;;;;;9.38;6.55;;;8.60;80.40;;;;;;4949747;29;20201;-75
2024/03/09 00:08:02;;;;;;;9.73;7.35;;;8.60;80.80;;;;;;4951446;29;20193;-75
2024/03/09 00:10:29;;;;;;;11.02;7.50;;;8.60;80.30;;;;;;4931520;29;20173;-75
2024/03/09 00:12:57;;;;;;;7.60;5.35;;;8.50;80.90;;;;;;4938568;29;20240;-76
2024/03/09 00:15:23;;;;;;;10.77;6.32;;;8.50;80.70;;;;;;4919423;29;20173;-76
2024/03/09 00:17:54;;;;;;;10.00;7.57;;;8.60;80.80;;;;;;4935468;29;20189;-75
2024/03/09 00:20:23;;;;;;;11.98;8.27;;;8.50;82.10;;;;;;4935829;29;20188;-75
2024/03/09 00:22:52;;;;;;;9.15;7.20;;;8.50;82.50;;;;;;4942948;29;20181;-76
2024/03/09 00:25:22;;;;;;;13.30;8.80;;;8.50;82.40;;;;;;4935080;29;20192;-75
2024/03/09 00:27:49;;;;;;;10.45;8.10;;;8.40;83.00;;;;;;4936540;29;20185;-75
2024/03/09 00:30:22;;;;;;;10.52;7.28;;;8.50;82.80;;;;;;4934831;29;20607;-75
2024/03/09 00:32:49;;;;;;;9.85;7.88;;;8.50;83.30;;;;;;4920221;29;20185;-75
2024/03/09 00:35:16;;;;;;;9.35;7.18;;;8.40;84.80;;;;;;4934873;29;20217;-75
2024/03/09 00:37:43;;;;;;;11.88;8.13;;;8.40;85.00;;;;;;4935018;29;20231;-75
2024/03/09 00:40:09;;;;;;;9.98;7.53;;;8.40;84.40;;;;;;4918544;29;20276;-75
2024/03/09 00:42:36;;;;;;;12.57;7.88;;;8.50;84.50;;;;;;4919339;29;20264;-75
2024/03/09 00:45:06;;;;;;;11.00;8.13;;;8.50;85.00;;;;;;4935889;29;20251;-76
2024/03/09 00:47:35;;;;;;;10.38;8.13;;;8.60;85.80;;;;;;4918953;29;20232;-75
2024/03/09 00:50:02;;;;;;;8.50;6.82;;;8.50;85.90;;;;;;4934188;29;20177;-75
2024/03/09 00:52:28;;;;;;;10.65;7.82;;;8.60;85.50;;;;;;4950406;29;20184;-75
2024/03/09 00:54:57;;;;;;;12.63;7.77;;;8.60;85.50;;;;;;4950901;29;20180;-77
2024/03/09 00:57:23;;;;;;;10.40;7.22;;;8.60;86.20;;;;;;4922355;29;20223;-75
2024/03/09 00:59:49;;;;;;;8.90;7.70;;;8.60;85.70;;;;;;4950320;29;20181;-76
2024/03/09 01:02:18;;;;;;;9.20;7.25;;;8.50;87.20;;;;;;4934469;29;20212;-76
2024/03/09 01:04:45;;;;;;;12.73;8.48;;;8.50;86.80;;;;;;4918670;29;20177;-76
2024/03/09 01:07:13;;;;;;;9.35;6.30;;;8.60;86.60;;;;;;4949914;28;20204;-75
2024/03/09 01:09:39;;;;;;;9.20;6.35;;;8.60;86.60;;;;;;4934035;29;20213;-76
2024/03/09 01:12:07;;;;;;;11.60;8.48;;;8.60;87.50;;;;;;4933065;29;20177;-75
2024/03/09 01:14:33;;;;;;;10.93;8.10;;;8.60;88.10;;;;;;4903577;29;20209;-75
2024/03/09 01:17:01;;;;;;;8.98;7.85;;;8.60;87.60;;;;;;4934257;29;20240;-75
2024/03/09 01:19:27;;;;;;;8.90;6.30;;;8.60;88.40;;;;;;4941721;29;20263;-76
2024/03/09 01:21:59;;;;;;;11.23;6.63;;;8.60;87.90;;;;;;4918647;29;21305;-76
2024/03/09 01:24:25;;;;;;;7.30;5.82;;;8.60;88.30;;;;;;4934639;29;20242;-75
2024/03/09 01:26:51;;;;;;;13.87;9.07;;;8.60;88.00;;;;;;4950557;28;20197;-75
2024/03/09 01:29:16;;;;;;;10.40;8.07;;;8.60;88.50;;;;;;4937459;29;20185;-74
2024/03/09 01:31:42;;;;;;;8.83;6.70;;;8.60;88.30;;;;;;4940993;29;20188;-75
2024/03/09 01:34:09;;;;;;;10.30;7.30;;;8.60;88.30;;;;;;4935571;29;20185;-76
2024/03/09 01:36:35;;;;;;;9.88;7.40;;;8.60;89.00;;;;;;4934331;29;20201;-77
2024/03/09 01:39:01;;;;;;;10.03;8.20;;;8.60;89.40;;;;;;4933692;29;20550;-77
2024/03/09 01:41:28;;;;;;;9.60;7.60;;;8.60;90.00;;;;;;4935390;29;20736;-76
2024/03/09 01:43:55;;;;;;;8.95;7.00;;;8.60;89.20;;;;;;4934227;29;20643;-76
2024/03/09 01:46:21;;;;;;;8.50;7.05;;;8.60;90.00;;;;;;4934034;29;20248;-76
2024/03/09 01:48:49;;;;;;;10.30;6.90;;;8.60;89.60;;;;;;4934490;29;20640;-76
2024/03/09 01:51:16;;;;;;;7.85;6.85;;;8.60;90.20;;;;;;4935352;29;20193;-76
2024/03/09 01:53:44;;;;;;;11.07;8.48;;;8.60;90.40;;;;;;4935037;29;20192;-76
2024/03/09 01:56:14;;;;;;;12.65;9.57;;;8.70;90.20;;;;;;4933710;29;20304;-76
2024/03/09 01:58:43;;;;;;;10.05;7.65;;;8.70;90.40;;;;;;4935406;29;20252;-75
2024/03/09 02:01:26;;;;;;;10.07;6.55;;;8.70;90.20;;;;;;4935585;29;20227;-76
2024/03/09 02:03:56;;;;;;;10.18;8.20;;;8.70;90.30;;;;;;4903138;29;20177;-75
2024/03/09 02:06:30;;;;;;;10.02;7.40;;;8.70;90.40;;;;;;4935787;29;20562;-76
2024/03/09 02:08:56;;;;;;;8.82;7.57;;;8.70;90.40;;;;;;4934079;29;20177;-76
2024/03/09 02:11:23;;;;;;;11.35;8.68;;;8.70;90.50;;;;;;4918763;29;20189;-76
2024/03/09 02:13:49;;;;;;;10.90;8.23;;;8.70;90.40;;;;;;4934499;29;20188;-76
2024/03/09 02:16:15;;;;;;;10.45;8.02;;;8.80;90.50;;;;;;4935638;29;20217;-76
2024/03/09 02:18:44;;;;;;;9.27;7.57;;;8.80;90.70;;;;;;4935644;29;20192;-76
2024/03/09 02:21:12;;;;;;;10.75;7.55;;;8.70;90.80;;;;;;4935743;29;20331;-76
2024/03/09 02:23:39;;;;;;;10.00;7.93;;;8.70;90.60;;;;;;4934569;29;20196;-76
2024/03/09 02:26:06;;;;;;;10.23;8.35;;;8.70;90.90;;;;;;4935975;29;20185;-75
2024/03/09 02:28:32;;;;;;;12.75;7.47;;;8.70;90.90;;;;;;4935413;29;20188;-76
2024/03/09 02:31:01;;;;;;;11.00;9.55;;;8.70;91.00;;;;;;4934698;29;20196;-76
2024/03/09 02:33:28;;;;;;;12.25;9.23;;;8.70;91.30;;;;;;4939628;29;20236;-76
2024/03/09 02:35:54;;;;;;;10.30;7.32;;;8.70;91.40;;;;;;4939056;29;20225;-76
2024/03/09 02:38:20;;;;;;;9.38;7.22;;;8.70;91.60;;;;;;4935857;29;20177;-76
2024/03/09 02:40:47;;;;;;;12.77;7.70;;;8.80;91.40;;;;;;4918849;29;20213;-76
2024/03/09 02:43:13;;;;;;;10.80;7.30;;;8.80;91.20;;;;;;4957589;28;20173;-77
2024/03/09 02:45:39;;;;;;;10.73;8.48;;;8.90;91.30;;;;;;4934874;29;20208;-76
2024/03/09 02:48:06;;;;;;;9.00;7.18;;;8.90;91.40;;;;;;4936513;29;20177;-76
2024/03/09 02:50:32;;;;;;;13.50;9.02;;;8.90;91.30;;;;;;4950658;29;20569;-76
2024/03/09 02:53:00;;;;;;;10.13;7.53;;;8.90;91.60;;;;;;4936018;29;20184;-76
2024/03/09 02:55:27;;;;;;;13.77;9.98;;;8.90;91.40;;;;;;4934525;29;20177;-76
2024/03/09 02:57:56;;;;;;;10.30;8.32;;;8.90;91.90;;;;;;4919004;29;20205;-76
2024/03/09 03:00:23;;;;;;;9.75;7.82;;;8.90;91.80;;;;;;4934200;29;20185;-76
2024/03/09 03:05:33;;;;;;;10.00;7.60;;;8.90;91.70;;;;;;4934801;29;20272;-76
2024/03/09 03:08:04;;;;;;;8.13;6.40;;;8.90;91.70;;;;;;4935276;29;20591;-76
2024/03/09 03:10:29;;;;;;;8.55;6.70;;;8.90;91.60;;;;;;4917425;29;20177;-76
2024/03/09 03:12:55;;;;;;;8.75;7.57;;;8.90;91.50;;;;;;4934199;29;20666;-76
2024/03/09 03:15:21;;;;;;;10.67;8.17;;;8.90;91.60;;;;;;4933946;29;20176;-77
2024/03/09 03:17:47;;;;;;;13.93;9.90;;;8.90;91.60;;;;;;4933753;29;20216;-76
2024/03/09 03:20:19;;;;;;;12.13;8.40;;;8.90;91.90;;;;;;4959049;28;20603;-76
2024/03/09 03:22:46;;;;;;;10.70;7.97;;;8.90;92.10;;;;;;4934761;29;20772;-77
2024/03/09 03:25:11;;;;;;;9.30;7.25;;;8.90;92.00;;;;;;4934730;29;20180;-76
2024/03/09 03:27:37;;;;;;;14.17;10.00;;;8.90;91.90;;;;;;4932994;29;20308;-76
2024/03/09 03:30:06;;;;;;;14.27;10.30;;;8.90;92.20;;;;;;4948316;29;20184;-76
2024/03/09 03:32:32;;;;;;;9.35;7.78;;;8.80;92.80;;;;;;4956699;28;20181;-76
2024/03/09 03:34:57;;;;;;;11.40;9.03;;;8.80;92.20;;;;;;4935061;29;20552;-76
2024/03/09 03:37:24;;;;;;;10.27;8.67;;;8.80;92.40;;;;;;4936807;29;20698;-75
2024/03/09 03:39:50;;;;;;;10.88;8.25;;;8.80;92.90;;;;;;4937006;29;20181;-76
2024/03/09 03:42:15;;;;;;;10.37;7.80;;;8.80;92.50;;;;;;4938409;29;20291;-76
2024/03/09 03:44:42;;;;;;;11.70;8.70;;;8.80;92.50;;;;;;4952700;29;20567;-76
2024/03/09 03:47:07;;;;;;;11.85;9.30;;;8.80;92.60;;;;;;4942112;28;20209;-77
2024/03/09 03:49:34;;;;;;;10.00;8.27;;;8.80;92.80;;;;;;4939404;29;20233;-76
2024/03/09 03:52:01;;;;;;;12.20;9.43;;;8.90;92.60;;;;;;4921113;29;20292;-75
2024/03/09 03:54:26;;;;;;;11.63;9.10;;;8.90;92.60;;;;;;4954640;29;20189;-76
2024/03/09 03:56:55;;;;;;;10.27;7.30;;;8.90;92.60;;;;;;4938511;29;20256;-76
2024/03/09 03:59:20;;;;;;;11.20;8.13;;;8.90;92.50;;;;;;4938724;29;20561;-76
2024/03/09 04:01:46;;;;;;;10.53;7.57;;;8.90;92.50;;;;;;4958009;29;20208;-76
2024/03/09 04:04:12;;;;;;;8.57;7.53;;;8.90;92.40;;;;;;4958326;29;20259;-76
2024/03/09 04:06:44;;;;;;;10.70;8.75;;;8.90;92.50;;;;;;4948485;29;20201;-76
2024/03/09 04:09:15;;;;;;;13.25;9.07;;;8.90;92.50;;;;;;4950833;29;20184;-76
2024/03/09 04:11:43;;;;;;;11.85;8.77;;;8.90;92.40;;;;;;4965184;28;20253;-77
2024/03/09 04:14:09;;;;;;;9.60;8.18;;;8.90;92.70;;;;;;4958596;29;20192;-76
2024/03/09 04:16:36;;;;;;;10.07;7.03;;;8.90;92.60;;;;;;4919097;29;1166995;-75
2024/03/09 04:19:04;;;;;;;12.52;8.27;;;8.90;92.70;;;;;;4973316;29;20619;-76
2024/03/09 04:21:30;;;;;;;11.93;9.20;;;8.90;92.60;;;;;;4968106;28;20206;-77
2024/03/09 04:23:56;;;;;;;9.23;7.47;;;8.80;92.60;;;;;;4958746;29;20185;-76
2024/03/09 04:26:22;;;;;;;10.20;9.00;;;8.80;92.70;;;;;;4950940;29;20213;-77
2024/03/09 04:28:47;;;;;;;10.80;8.60;;;8.80;93.00;;;;;;4957032;29;20607;-75
2024/03/09 04:31:14;;;;;;;12.87;9.30;;;8.70;93.10;;;;;;4975741;28;20180;-75
2024/03/09 04:33:40;;;;;;;12.50;8.95;;;8.70;92.70;;;;;;4972874;28;20191;-76
2024/03/09 04:36:07;;;;;;;12.13;9.73;;;8.70;92.90;;;;;;4965658;28;20476;-75
2024/03/09 04:38:33;;;;;;;14.15;8.90;;;8.70;93.10;;;;;;4974228;29;20247;-76
2024/03/09 04:40:59;;;;;;;12.05;8.55;;;8.60;93.00;;;;;;4969606;28;20224;-76
2024/03/09 04:43:27;;;;;;;12.60;9.20;;;8.70;93.20;;;;;;4977175;28;20180;-76
2024/03/09 04:45:55;;;;;;;12.05;8.88;;;8.60;93.10;;;;;;4958863;29;20193;-76
2024/03/09 04:48:21;;;;;;;12.57;10.00;;;8.60;93.20;;;;;;4959152;29;20189;-76
2024/03/09 04:50:50;;;;;;;13.27;8.80;;;8.60;93.20;;;;;;4966649;29;20185;-76
2024/03/09 04:53:18;;;;;;;14.07;9.70;;;8.60;93.20;;;;;;4965997;29;20276;-76
2024/03/09 04:55:48;;;;;;;10.48;8.48;;;8.60;93.40;;;;;;4957423;29;20237;-75
2024/03/09 04:58:14;;;;;;;11.10;8.23;;;8.60;93.40;;;;;;4954621;29;20189;-76
2024/03/09 05:00:40;;;;;;;13.98;9.60;;;8.60;93.30;;;;;;4957336;29;20227;-76
2024/03/09 05:03:06;;;;;;;12.60;10.20;;;8.60;93.60;;;;;;4973964;29;20177;-76
2024/03/09 05:05:33;;;;;;;12.32;10.07;;;8.50;93.60;;;;;;4953742;29;20627;-76
2024/03/09 05:08:01;;;;;;;13.98;10.30;;;8.50;93.70;;;;;;4969640;28;20187;-75
2024/03/09 05:10:27;;;;;;;14.40;10.63;;;8.50;93.90;;;;;;4958578;28;20205;-76
2024/03/09 05:12:53;;;;;;;11.07;8.90;;;8.40;94.10;;;;;;4958199;29;20195;-76
2024/03/09 05:15:30;;;;;;;15.20;10.10;;;8.40;94.00;;;;;;4972802;29;20178;-76
2024/03/09 05:18:00;;;;;;;12.15;9.75;;;8.40;93.90;;;;;;4958481;29;20181;-76
2024/03/09 05:20:27;;;;;;;14.57;11.60;;;8.40;93.90;;;;;;4955154;29;20212;-76
2024/03/09 05:22:55;;;;;;;12.07;9.05;;;8.40;94.00;;;;;;4958483;29;20173;-76
2024/03/09 05:25:21;;;;;;;11.48;9.27;;;8.40;94.10;;;;;;4946730;29;20185;-77
2024/03/09 05:27:48;;;;;;;11.38;9.15;;;8.30;94.10;;;;;;4958108;29;20177;-76
2024/03/09 05:30:18;;;;;;;13.85;10.23;;;8.30;94.30;;;;;;4952806;29;20248;-76
2024/03/09 05:32:57;;;;;;;13.95;10.20;;;8.30;94.50;;;;;;4944915;29;20244;-77
2024/03/09 05:35:28;;;;;;;14.88;10.70;;;8.30;94.40;;;;;;4955441;29;20256;-76
2024/03/09 05:37:55;;;;;;;15.30;10.98;;;8.30;94.50;;;;;;4956710;29;20224;-76
2024/03/09 05:40:21;;;;;;;14.80;11.05;;;8.30;94.70;;;;;;4956116;29;20189;-77
2024/03/09 05:42:48;;;;;;;14.07;10.60;;;8.30;94.80;;;;;;4955970;29;20177;-77
2024/03/09 05:45:18;;;;;;;12.50;10.75;;;8.30;94.90;;;;;;4955353;29;20169;-77
2024/03/09 05:47:48;;;;;;;13.02;10.07;;;8.30;95.10;;;;;;4956779;29;20181;-77
2024/03/09 05:50:17;;;;;;;17.42;11.10;;;8.20;94.90;;;;;;4942563;29;20175;-77
2024/03/09 05:52:47;;;;;;;15.02;11.50;;;8.20;95.50;;;;;;4955569;29;20157;-77
2024/03/09 05:55:15;;;;;;;14.93;11.80;;;8.10;95.40;;;;;;4955855;29;20208;-76
2024/03/09 05:57:43;;;;;;;13.88;10.38;;;8.10;96.00;;;;;;4955566;29;20200;-77
2024/03/09 06:00:15;;;;;;;13.65;10.07;;;8.10;95.80;;;;;;4955142;29;20181;-76
2024/03/09 06:02:42;;;;;;;13.95;10.82;;;8.10;95.70;;;;;;4954969;29;20196;-77
2024/03/09 06:05:09;;;;;;;14.10;11.20;;;8.10;96.30;;;;;;4955536;29;20181;-76
2024/03/09 06:07:39;;;;;;;11.85;8.90;;;8.10;96.30;;;;;;4945504;29;20199;-75
2024/03/09 06:10:07;;;;;;;16.10;10.65;;;8.10;96.20;;;;;;4951426;29;20184;-76
2024/03/09 06:12:35;;;;;;;15.23;11.27;;;8.10;96.20;;;;;;4936557;29;20176;-77
2024/03/09 06:15:03;;;;;;;12.60;9.00;;;8.10;96.20;;;;;;4935774;29;20185;-77
2024/03/09 06:17:29;;;;;;;12.43;9.38;;;8.10;96.20;;;;;;4947909;29;20213;-77
2024/03/09 06:19:55;;;;;;;13.00;9.70;;;8.10;96.20;;;;;;4902029;29;20194;-76
2024/03/09 06:22:21;;;;;;;13.80;10.07;;;8.10;96.20;;;;;;4933603;29;21071;-76
2024/03/09 06:24:47;;;;;;;12.10;9.57;;;8.10;96.20;;;;;;4933861;29;20193;-77
2024/03/09 06:27:13;;;;;;;13.53;9.20;;;8.10;96.20;;;;;;4930948;29;20193;-76
2024/03/09 06:29:41;;;;;;;12.63;9.32;;;8.20;96.20;;;;;;4933876;29;20199;-76
2024/03/09 06:32:06;;;;;;;11.88;9.80;;;8.20;96.30;;;;;;4916548;29;20327;-77
2024/03/09 06:34:32;;;;;;;12.57;9.57;;;8.20;96.70;;;;;;4927245;29;20272;-76
2024/03/09 06:36:59;;;;;;;14.43;10.20;;;8.20;96.50;;;;;;4934297;29;20636;-77
2024/03/09 06:39:30;;;;;;;10.90;8.75;;;8.20;96.80;;;;;;4918010;29;20325;-77
2024/03/09 06:41:57;;;;;;;11.23;8.57;;;8.20;96.70;;;;;;4934205;29;20205;-74
2024/03/09 06:44:23;;;;;;;14.70;11.23;;;8.20;96.60;;;;;;4928663;29;20181;-74
2024/03/09 06:46:52;;;;;;;15.50;11.38;;;8.20;96.70;;;;;;4932929;29;20292;-74
2024/03/09 06:49:18;;;;;;;14.40;9.35;;;8.20;96.70;;;;;;4930191;29;20185;-74
2024/03/09 06:51:47;;;;;;;13.18;9.50;;;8.20;96.70;;;;;;4931992;29;20276;-74
2024/03/09 06:54:12;;;;;;;16.10;12.10;;;8.20;96.70;;;;;;4933126;29;20180;-74
2024/03/09 06:56:38;;;;;;;16.70;10.93;;;8.30;97.00;;;;;;4938520;29;20229;-75
2024/03/09 06:59:05;;;;;;;14.83;11.03;;;8.30;96.90;;;;;;4927276;29;20200;-74
2024/03/09 07:01:31;;;;;;;14.35;9.80;;;8.30;97.20;;;;;;4948791;29;20733;-75
2024/03/09 07:04:04;;;;;;;15.77;11.77;;;8.30;97.10;;;;;;4932007;29;20232;-74
2024/03/09 07:06:30;;;;;;;13.02;9.95;;;8.30;97.20;;;;;;4933929;29;20207;-74
2024/03/09 07:08:57;;;;;;;12.85;10.57;;;8.30;97.20;;;;;;4931640;29;20177;-74
2024/03/09 07:11:25;;;;;;;19.23;9.88;;;8.30;97.20;;;;;;4929618;29;20231;-75
2024/03/09 07:13:52;;;;;;;14.10;9.63;;;8.30;97.60;;;;;;4948335;29;20268;-75
2024/03/09 07:16:17;;;;;;;15.18;10.27;;;8.30;97.30;;;;;;4937110;29;20216;-74
2024/03/09 07:18:45;;;;;;;14.53;10.30;;;8.40;97.40;;;;;;4942227;29;20192;-75
2024/03/09 07:21:11;;;;;;;12.55;10.35;;;8.40;97.30;;;;;;4938435;29;20648;-75
2024/03/09 07:23:37;;;;;;;13.23;9.80;;;8.40;97.50;;;;;;4931972;29;20229;-75
2024/03/09 07:26:06;;;;;;;15.00;11.50;;;8.40;97.40;;;;;;4932019;29;20224;-75
2024/03/09 07:28:32;;;;;;;15.35;9.98;;;8.50;97.50;;;;;;4930819;29;20589;-75
2024/03/09 07:30:57;;;;;;;13.40;10.77;;;8.50;97.70;;;;;;4915109;29;20196;-75
2024/03/09 07:33:24;;;;;;;19.47;13.10;;;8.60;97.90;;;;;;4929665;29;20188;-75
2024/03/09 07:35:51;;;;;;;17.80;12.07;;;8.50;97.80;;;;;;4934511;29;20291;-74
2024/03/09 07:38:17;;;;;;;13.52;10.00;;;8.60;98.10;;;;;;4936056;29;20313;-75
2024/03/09 07:40:43;;;;;;;17.03;11.77;;;8.70;98.00;;;;;;4939392;29;20189;-75
2024/03/09 07:43:13;;;;;;;16.43;10.73;;;8.80;98.00;;;;;;4942495;29;21057;-75
2024/03/09 07:45:40;;;;;;;16.67;12.60;;;8.80;98.00;;;;;;4917599;29;20671;-75
2024/03/09 07:48:05;;;;;;;16.15;11.07;;;8.80;98.00;;;;;;4934199;29;20177;-75
2024/03/09 07:50:32;;;;;;;13.23;10.52;;;8.90;98.00;;;;;;4933433;29;20555;-75
2024/03/09 07:52:58;;;;;;;14.32;9.88;;;9.00;98.10;;;;;;4934534;29;20209;-75
2024/03/09 07:55:26;;;;;;;15.13;11.57;;;9.20;98.10;;;;;;4932554;29;20185;-74
2024/03/09 07:57:59;;;;;;;12.85;11.45;;;9.20;97.90;;;;;;4912584;29;20805;-76
2024/03/09 08:00:33;;;;;;;14.85;11.30;;;9.30;98.20;;;;;;4914901;29;20181;-76
2024/03/09 08:03:00;;;;;;;15.23;11.65;;;9.50;98.30;;;;;;4914412;29;20189;-76
2024/03/09 08:05:28;;;;;;;15.52;11.48;;;9.90;98.10;;;;;;4919850;29;20181;-76
2024/03/09 08:07:55;;;;;;;15.60;11.80;;;10.40;98.10;;;;;;4913676;29;20181;-76
2024/03/09 08:10:25;;;;;;;17.02;12.15;;;11.00;98.50;;;;;;4913044;29;20188;-77
2024/03/09 08:12:52;;;;;;;11.00;9.73;;;11.60;98.20;;;;;;4932586;29;20181;-76
2024/03/09 08:15:19;;;;;;;12.37;10.40;;;12.50;99.10;;;;;;4932749;29;20596;-76
2024/03/09 08:17:48;;;;;;;10.70;9.30;;;13.30;99.10;;;;;;4934892;29;21129;-76
2024/03/09 08:20:15;;;;;;;14.47;10.30;;;14.20;95.20;;;;;;4932259;29;20943;-76
2024/03/09 08:22:45;;;;;;;14.23;8.87;;;15.00;97.40;;;;;;4936402;29;20655;-77
2024/03/09 08:25:12;;;;;;;11.40;9.90;;;15.80;97.20;;;;;;4912160;29;20627;-76
2024/03/09 08:27:40;;;;;;;11.67;9.60;;;16.50;95.00;;;;;;4937644;29;20595;-77
2024/03/09 08:30:08;;;;;;;12.27;10.37;;;16.90;90.90;;;;;;4935889;29;20681;-77
2024/03/09 08:32:35;;;;;;;13.13;10.20;;;17.30;90.00;;;;;;4920070;29;20629;-77
2024/03/09 08:35:08;;;;;;;10.13;7.80;;;17.70;87.70;;;;;;4933804;29;20616;-77
2024/03/09 08:37:41;;;;;;;11.57;9.37;;;18.00;87.50;;;;;;4935312;29;20620;-75
2024/03/09 08:40:18;;;;;;;10.30;9.07;;;18.40;87.50;;;;;;4919256;29;20592;-76
2024/03/09 08:42:52;;;;;;;10.57;9.47;;;18.70;81.70;;;;;;4934627;29;20648;-76
2024/03/09 08:45:21;;;;;;;12.27;10.73;;;18.80;76.00;;;;;;4917716;29;20596;-75
2024/03/09 08:47:50;;;;;;;10.83;9.27;;;18.60;71.50;;;;;;4949288;28;20667;-76
2024/03/09 08:50:17;;;;;;;10.93;9.13;;;18.60;71.90;;;;;;4934374;29;20580;-75
2024/03/09 08:52:45;;;;;;;9.53;8.57;;;18.70;74.30;;;;;;4933163;29;21174;-75
2024/03/09 08:55:11;;;;;;;11.70;10.50;;;18.70;70.80;;;;;;4934045;29;20589;-74
2024/03/09 08:57:39;;;;;;;10.93;8.43;;;18.50;67.80;;;;;;4935873;29;20954;-74
2024/03/09 09:00:06;;;;;;;11.40;9.80;;;18.60;69.60;;;;;;4934325;29;20584;-74
2024/03/09 09:02:32;;;;;;;10.67;9.27;;;18.60;66.50;;;;;;4935994;29;20663;-76
2024/03/09 09:04:58;;;;;;;11.27;10.07;;;18.60;68.70;;;;;;4936397;29;20656;-76
2024/03/09 09:07:24;;;;;;;11.37;10.17;;;18.80;67.10;;;;;;4935221;29;20629;-76
2024/03/09 09:09:50;;;;;;;10.77;9.63;;;19.00;63.50;;;;;;4934096;29;21182;-75
2024/03/09 09:12:19;;;;;;;10.77;9.10;;;18.80;62.50;;;;;;4936634;29;20187;-76
2024/03/09 09:14:45;;;;;;;12.63;9.70;;;18.80;62.60;;;;;;4936718;29;20990;-76
2024/03/09 09:17:12;;;;;;;10.70;8.63;;;18.70;59.70;;;;;;4937777;29;20696;-77
2024/03/09 09:19:38;;;;;;;10.50;8.27;;;18.80;63.90;;;;;;4922026;29;20601;-77
2024/03/09 09:22:06;;;;;;;10.77;9.67;;;19.30;64.30;;;;;;4933393;29;21491;-75
2024/03/09 09:24:33;;;;;;;9.93;8.77;;;19.70;63.30;;;;;;4932597;29;20972;-75
2024/03/09 09:26:58;;;;;;;8.90;8.00;;;20.10;64.70;;;;;;4935258;29;20612;-76
2024/03/09 09:29:28;;;;;;;10.27;9.20;;;20.50;65.40;;;;;;4935792;29;20589;-75
2024/03/09 09:32:00;;;;;;;10.77;9.00;;;20.80;62.30;;;;;;4933699;29;20525;-74
2024/03/09 09:34:30;;;;;;;10.87;9.57;;;20.90;59.90;;;;;;4933485;29;20596;-75
2024/03/09 09:36:58;;;;;;;11.80;8.03;;;21.20;60.70;;;;;;4933085;29;20620;-75
2024/03/09 09:39:32;;;;;;;11.80;10.60;;;21.50;60.80;;;;;;4930116;29;20608;-75
2024/03/09 09:41:59;;;;;;;10.90;8.60;;;21.80;58.20;;;;;;4933209;29;20662;-75
2024/03/09 09:44:28;;;;;;;10.53;9.43;;;21.60;56.80;;;;;;4925575;29;20603;-75
2024/03/09 09:46:56;;;;;;;12.33;11.03;;;21.30;55.20;;;;;;4927384;29;20695;-74
2024/03/09 09:49:22;;;;;;;12.07;10.70;;;20.70;53.60;;;;;;4934430;29;20939;-74
2024/03/09 09:51:52;;;;;;;10.30;9.20;;;20.30;52.60;;;;;;4934563;29;20593;-74
2024/03/09 09:54:26;;;;;;;12.27;11.03;;;20.10;54.50;;;;;;4934855;29;20593;-74
2024/03/09 09:56:54;;;;;;;12.37;10.67;;;20.20;53.90;;;;;;4933479;29;20629;-74
2024/03/09 09:59:20;;;;;;;11.20;9.97;;;20.20;54.40;;;;;;4933947;29;20603;-74
2024/03/09 10:01:49;;;;;;;9.80;8.80;;;20.10;55.30;;;;;;4934131;29;20671;-74
2024/03/09 10:04:18;;;;;;;10.73;9.63;;;20.20;53.80;;;;;;4933493;29;20177;-75
2024/03/09 10:06:45;;;;;;;10.30;9.00;;;20.20;54.50;;;;;;4949093;29;20660;-74
2024/03/09 10:09:10;;;;;;;10.20;9.13;;;20.20;55.10;;;;;;4932710;29;20596;-75
2024/03/09 10:11:36;;;;;;;10.60;9.50;;;20.30;54.00;;;;;;4948960;29;20589;-74
2024/03/09 10:14:02;;;;;;;9.40;8.60;;;20.60;55.30;;;;;;4933057;29;20236;-74
2024/03/09 10:16:30;;;;;;;10.17;9.07;;;20.70;55.10;;;;;;4932684;29;20223;-74
2024/03/09 10:18:58;;;;;;;9.80;8.90;;;20.80;54.10;;;;;;4932294;29;20690;-74
2024/03/09 10:21:33;;;;;;;9.67;8.60;;;20.90;54.20;;;;;;4932856;29;21201;-74
2024/03/09 10:24:06;;;;;;;9.30;8.40;;;21.10;54.90;;;;;;4909809;29;20599;-75
2024/03/09 10:26:34;;;;;;;11.80;8.60;;;21.20;54.40;;;;;;4920095;29;20648;-75
2024/03/09 10:29:02;;;;;;;9.27;8.37;;;21.30;54.30;;;;;;4933317;29;20760;-75
2024/03/09 10:31:29;;;;;;;9.63;8.60;;;21.50;54.60;;;;;;4901391;29;20612;-75
2024/03/09 10:33:56;;;;;;;12.67;10.80;;;21.50;53.50;;;;;;4936060;29;20708;-75
2024/03/09 10:36:27;;;;;;;11.43;8.70;;;21.00;52.00;;;;;;4920654;29;20647;-75
2024/03/09 10:38:57;;;;;;;9.70;8.70;;;20.70;51.60;;;;;;4914199;29;20589;-75
2024/03/09 10:41:28;;;;;;;10.70;9.30;;;20.30;51.90;;;;;;4955419;29;21139;-76
2024/03/09 10:43:56;;;;;;;11.87;9.80;;;20.20;53.10;;;;;;4929287;29;20968;-75
2024/03/09 10:46:32;;;;;;;11.73;10.40;;;20.10;52.90;;;;;;4932818;29;20768;-76
2024/03/09 10:48:59;;;;;;;10.40;8.90;;;19.70;51.10;;;;;;4937423;29;20595;-75
2024/03/09 10:51:27;;;;;;;9.47;8.47;;;19.50;52.30;;;;;;4944830;28;20585;-76
2024/03/09 10:54:14;;;;;;;11.90;10.70;;;19.30;52.70;;;;;;4946810;29;20591;-75
2024/03/09 10:56:42;;;;;;;11.63;10.43;;;19.20;52.20;;;;;;4918575;29;20647;-76
2024/03/09 10:59:10;;;;;;;11.47;9.13;;;19.00;52.10;;;;;;4940503;29;20588;-76
2024/03/09 11:01:39;;;;;;;10.20;9.10;;;19.00;52.70;;;;;;4920389;29;21275;-76
2024/03/09 11:04:07;;;;;;;11.83;10.20;;;19.10;53.90;;;;;;4929687;29;21008;-75
2024/03/09 11:06:34;;;;;;;11.83;8.77;;;19.30;53.30;;;;;;4939775;29;20612;-75
2024/03/09 11:09:03;;;;;;;10.80;9.53;;;19.30;52.70;;;;;;4941361;28;20975;-74
2024/03/09 11:11:31;;;;;;;11.10;9.70;;;19.40;52.90;;;;;;4899337;29;20629;-75
2024/03/09 11:14:03;;;;;;;11.30;9.90;;;19.20;52.40;;;;;;4926602;29;20648;-75
2024/03/09 11:16:29;;;;;;;9.77;8.13;;;19.20;52.30;;;;;;4933409;29;20696;-75
2024/03/09 11:18:55;;;;;;;11.40;10.20;;;19.30;53.30;;;;;;4943191;29;20604;-75
2024/03/09 11:21:35;;;;;;;9.37;8.27;;;19.10;51.90;;;;;;4947961;28;20649;-74
2024/03/09 11:24:07;;;;;;;10.70;8.40;;;19.10;52.80;;;;;;4924338;29;20651;-75
2024/03/09 11:26:46;;;;;;;11.23;9.60;;;19.20;53.60;;;;;;4933011;29;20652;-75
2024/03/09 11:29:13;;;;;;;9.40;8.27;;;19.20;53.40;;;;;;4933583;29;20596;-76
2024/03/09 11:31:43;;;;;;;9.53;8.53;;;19.30;53.60;;;;;;4929905;29;20605;-75
2024/03/09 11:34:18;;;;;;;9.63;8.33;;;19.40;53.10;;;;;;4933523;29;20644;-75
2024/03/09 11:36:54;;;;;;;10.10;8.40;;;19.30;52.80;;;;;;4916498;29;20664;-77
2024/03/09 11:39:28;;;;;;;10.90;9.37;;;19.30;52.20;;;;;;4934864;29;20688;-75
2024/03/09 11:41:55;;;;;;;9.53;8.47;;;19.60;52.50;;;;;;4932131;29;20640;-76
2024/03/09 11:44:27;;;;;;;11.17;7.93;;;19.50;52.50;;;;;;4962813;28;20974;-77
2024/03/09 11:46:55;;;;;;;7.67;6.97;;;19.60;52.90;;;;;;4935142;29;20631;-76
2024/03/09 11:49:27;;;;;;;9.93;8.50;;;19.70;53.40;;;;;;4928216;29;20596;-76
2024/03/09 11:51:54;;;;;;;9.40;6.70;;;19.80;53.40;;;;;;4931651;29;20600;-77
2024/03/09 11:54:20;;;;;;;9.57;7.40;;;19.90;53.20;;;;;;4948217;29;20610;-76
2024/03/09 11:56:46;;;;;;;9.87;8.30;;;19.80;52.70;;;;;;4935432;29;21051;-76
2024/03/09 11:59:12;;;;;;;7.67;6.83;;;19.80;52.50;;;;;;4964472;28;20691;-77
2024/03/09 12:01:42;;;;;;;9.40;8.13;;;19.80;52.50;;;;;;4933427;29;20213;-76
2024/03/09 12:04:09;;;;;;;9.87;7.57;;;19.90;52.30;;;;;;4936542;29;20581;-76
2024/03/09 12:06:40;;;;;;;11.27;9.13;;;19.80;52.20;;;;;;4929655;29;20660;-75
2024/03/09 12:09:07;;;;;;;8.30;6.87;;;19.50;50.70;;;;;;4951061;29;20609;-74
2024/03/09 12:11:34;;;;;;;9.97;7.10;;;19.50;51.90;;;;;;4903614;29;20599;-74
2024/03/09 12:14:03;;;;;;;5.70;5.13;;;19.60;52.10;;;;;;4935429;29;20581;-75
2024/03/09 12:16:31;;;;;;;7.40;6.23;;;19.70;53.30;;;;;;4936362;29;20632;-75
2024/03/09 12:18:59;;;;;;;8.40;7.17;;;20.00;53.50;;;;;;4935845;29;20585;-74
2024/03/09 12:21:27;;;;;;;9.13;7.63;;;20.20;52.20;;;;;;4935689;29;20639;-74
2024/03/09 12:23:58;;;;;;;11.20;9.07;;;20.30;53.00;;;;;;4935148;29;20625;-75
2024/03/09 12:26:25;;;;;;;11.57;9.17;;;20.20;51.50;;;;;;4935122;29;20625;-75
2024/03/09 12:28:53;;;;;;;9.03;7.87;;;20.10;50.90;;;;;;4918608;29;20621;-74
2024/03/09 12:31:19;;;;;;;8.53;7.63;;;20.20;50.90;;;;;;4919274;29;21236;-74
2024/03/09 12:33:46;;;;;;;9.30;5.80;;;20.10;51.60;;;;;;4935771;29;20703;-74
2024/03/09 12:36:15;;;;;;;7.30;6.20;;;20.10;51.90;;;;;;4918994;29;21390;-75
2024/03/09 12:38:41;;;;;;;8.60;7.33;;;20.10;52.30;;;;;;4934386;29;20585;-75
2024/03/09 12:41:22;;;;;;;10.90;8.30;;;20.00;51.10;;;;;;4934190;29;20679;-75
2024/03/09 12:43:48;;;;;;;9.77;7.90;;;19.80;50.20;;;;;;4934522;29;20592;-75
2024/03/09 12:46:14;;;;;;;11.40;8.00;;;19.50;50.10;;;;;;4934851;29;20620;-75
2024/03/09 12:48:41;;;;;;;8.07;5.93;;;19.20;50.10;;;;;;4934399;29;21445;-75